sensor_id;sensor_type;location;lat;lon;timestamp;pressure;altitude;pressure_sealevel;temperature;humidity
12664;BME280;6396;58.490;15.528;2022-10-26T00:00:32;99448.47;;;7.85;100.00
12664;BME280;6396;58.490;15.528;2022-10-26T00:02:59;100128.72;;;11.67;100.00
12664;BME280;6396;58.490;15.528;2022-10-26T00:05:27;99988.88;;;10.92;100.00
12664;BME280;6396;58.490;15.528;2022-10-26T00:07:53;100108.41;;;11.45;100.00
12664;BME280;6396;58.490;15.528;2022-10-26T00:10:20;100105.34;;;11.32;100.00
12664;BME280;6396;58.490;15.528;2022-10-26T00:12:48;100123.41;;;11.44;100.00
12664;BME280;6396;58.490;15.528;2022-10-26T00:15:16;100224.59;;;11.74;100.00
12664;BME280;6396;58.490;15.528;2022-10-26T00:17:43;99728.19;;;9.12;100.00
12664;BME280;6396;58.490;15.528;2022-10-26T00:20:12;100179.91;;;11.66;100.00
12664;BME280;6396;58.490;15.528;2022-10-26T00:22:40;100166.75;;;11.65;100.00
12664;BME280;6396;58.490;15.528;2022-10-26T00:25:08;100250.56;;;11.61;100.00
12664;BME280;6396;58.490;15.528;2022-10-26T00:27:34;100113.69;;;11.21;100.00
12664;BME280;6396;58.490;15.528;2022-10-26T00:30:02;100167.91;;;11.56;100.00
12664;BME280;6396;58.490;15.528;2022-10-26T00:32:30;99943.19;;;10.19;100.00
12664;BME280;6396;58.490;15.528;2022-10-26T00:34:57;100082.44;;;10.85;100.00
12664;BME280;6396;58.490;15.528;2022-10-26T00:37:23;100187.56;;;11.49;100.00
12664;BME280;6396;58.490;15.528;2022-10-26T00:39:52;100040.97;;;10.39;100.00
12664;BME280;6396;58.490;15.528;2022-10-26T00:42:20;100192.19;;;11.43;100.00
12664;BME280;6396;58.490;15.528;2022-10-26T00:44:56;100198.41;;;11.42;100.00
12664;BME280;6396;58.490;15.528;2022-10-26T00:47:30;99855.66;;;9.33;100.00
12664;BME280;6396;58.490;15.528;2022-10-26T00:50:02;100168.03;;;11.04;100.00
12664;BME280;6396;58.490;15.528;2022-10-26T00:52:32;100067.81;;;10.52;100.00
12664;BME280;6396;58.490;15.528;2022-10-26T00:55:01;100136.91;;;10.89;100.00
12664;BME280;6396;58.490;15.528;2022-10-26T00:57:28;100123.50;;;10.70;100.00
12664;BME280;6396;58.490;15.528;2022-10-26T00:59:56;100215.41;;;11.35;100.00
12664;BME280;6396;58.490;15.528;2022-10-26T01:02:23;100215.53;;;11.32;100.00
12664;BME280;6396;58.490;15.528;2022-10-26T01:04:51;100094.44;;;10.70;100.00
12664;BME280;6396;58.490;15.528;2022-10-26T01:07:21;100231.44;;;11.30;100.00
12664;BME280;6396;58.490;15.528;2022-10-26T01:09:55;100213.78;;;11.31;100.00
12664;BME280;6396;58.490;15.528;2022-10-26T01:12:23;100208.44;;;11.32;100.00
12664;BME280;6396;58.490;15.528;2022-10-26T01:14:50;100204.09;;;11.31;100.00
12664;BME280;6396;58.490;15.528;2022-10-26T01:17:38;100199.66;;;11.32;100.00
12664;BME280;6396;58.490;15.528;2022-10-26T01:23:13;100174.31;;;11.01;100.00
12664;BME280;6396;58.490;15.528;2022-10-26T01:28:58;100226.88;;;11.34;100.00
12664;BME280;6396;58.490;15.528;2022-10-26T01:31:36;100216.22;;;11.37;100.00
12664;BME280;6396;58.490;15.528;2022-10-26T01:34:08;100122.81;;;10.64;100.00
12664;BME280;6396;58.490;15.528;2022-10-26T01:36:41;100231.09;;;11.39;100.00
12664;BME280;6396;58.490;15.528;2022-10-26T01:39:13;100103.56;;;10.60;100.00
12664;BME280;6396;58.490;15.528;2022-10-26T01:41:45;100192.56;;;11.09;100.00
12664;BME280;6396;58.490;15.528;2022-10-26T01:44:17;100079.53;;;10.43;100.00
12664;BME280;6396;58.490;15.528;2022-10-26T01:46:48;100238.06;;;11.42;100.00
12664;BME280;6396;58.490;15.528;2022-10-26T01:49:20;100165.16;;;11.11;100.00
12664;BME280;6396;58.490;15.528;2022-10-26T01:51:48;100137.53;;;10.95;100.00
12664;BME280;6396;58.490;15.528;2022-10-26T01:54:16;100103.06;;;10.75;100.00
12664;BME280;6396;58.490;15.528;2022-10-26T01:56:44;100219.38;;;11.46;100.00
12664;BME280;6396;58.490;15.528;2022-10-26T01:59:18;100165.03;;;11.14;100.00
12664;BME280;6396;58.490;15.528;2022-10-26T02:02:17;99520.94;;;6.80;100.00
12664;BME280;6396;58.490;15.528;2022-10-26T02:04:59;100123.94;;;10.81;100.00
12664;BME280;6396;58.490;15.528;2022-10-26T02:07:35;99981.31;;;10.10;100.00
12664;BME280;6396;58.490;15.528;2022-10-26T02:10:11;100019.44;;;10.00;100.00
12664;BME280;6396;58.490;15.528;2022-10-26T02:12:46;100145.72;;;10.63;100.00
12664;BME280;6396;58.490;15.528;2022-10-26T02:15:17;100282.38;;;11.60;100.00
12664;BME280;6396;58.490;15.528;2022-10-26T02:17:50;100277.84;;;11.62;100.00
12664;BME280;6396;58.490;15.528;2022-10-26T02:20:21;99999.78;;;10.10;100.00
12664;BME280;6396;58.490;15.528;2022-10-26T02:22:52;100236.31;;;11.67;100.00
12664;BME280;6396;58.490;15.528;2022-10-26T02:25:22;100276.75;;;11.69;100.00
12664;BME280;6396;58.490;15.528;2022-10-26T02:27:56;99616.16;;;8.01;100.00
12664;BME280;6396;58.490;15.528;2022-10-26T02:30:29;99785.25;;;8.85;100.00
12664;BME280;6396;58.490;15.528;2022-10-26T02:33:02;99750.84;;;8.91;100.00
12664;BME280;6396;58.490;15.528;2022-10-26T02:35:32;100017.06;;;10.19;100.00
12664;BME280;6396;58.490;15.528;2022-10-26T02:38:03;99772.72;;;8.93;100.00
12664;BME280;6396;58.490;15.528;2022-10-26T02:40:32;100042.00;;;9.83;100.00
12664;BME280;6396;58.490;15.528;2022-10-26T02:43:04;100263.25;;;11.76;100.00
12664;BME280;6396;58.490;15.528;2022-10-26T02:45:36;100001.88;;;10.26;100.00
12664;BME280;6396;58.490;15.528;2022-10-26T02:48:08;99992.00;;;10.31;100.00
12664;BME280;6396;58.490;15.528;2022-10-26T02:50:42;100038.31;;;10.39;100.00
12664;BME280;6396;58.490;15.528;2022-10-26T02:53:16;100284.28;;;11.81;100.00
12664;BME280;6396;58.490;15.528;2022-10-26T02:55:48;99877.34;;;9.67;100.00
12664;BME280;6396;58.490;15.528;2022-10-26T02:58:18;100120.34;;;11.08;100.00
12664;BME280;6396;58.490;15.528;2022-10-26T03:00:46;100230.66;;;11.51;100.00
12664;BME280;6396;58.490;15.528;2022-10-26T03:03:15;100252.53;;;11.81;100.00
12664;BME280;6396;58.490;15.528;2022-10-26T03:05:42;100265.47;;;11.88;100.00
12664;BME280;6396;58.490;15.528;2022-10-26T03:08:09;99537.53;;;7.67;100.00
12664;BME280;6396;58.490;15.528;2022-10-26T03:10:39;99893.91;;;9.70;100.00
12664;BME280;6396;58.490;15.528;2022-10-26T03:13:06;100263.84;;;11.84;100.00
12664;BME280;6396;58.490;15.528;2022-10-26T03:15:33;100176.41;;;11.41;100.00
12664;BME280;6396;58.490;15.528;2022-10-26T03:18:00;100268.09;;;11.88;100.00
12664;BME280;6396;58.490;15.528;2022-10-26T03:20:29;99955.69;;;10.14;100.00
12664;BME280;6396;58.490;15.528;2022-10-26T03:22:55;99982.66;;;9.96;100.00
12664;BME280;6396;58.490;15.528;2022-10-26T03:25:22;99923.19;;;9.87;100.00
12664;BME280;6396;58.490;15.528;2022-10-26T03:27:55;99967.00;;;10.18;100.00
12664;BME280;6396;58.490;15.528;2022-10-26T03:30:23;100298.94;;;11.89;100.00
12664;BME280;6396;58.490;15.528;2022-10-26T03:32:49;100313.88;;;11.90;100.00
12664;BME280;6396;58.490;15.528;2022-10-26T03:35:16;100155.00;;;11.24;100.00
12664;BME280;6396;58.490;15.528;2022-10-26T03:37:45;100133.22;;;11.17;100.00
12664;BME280;6396;58.490;15.528;2022-10-26T03:40:12;100301.41;;;11.94;100.00
12664;BME280;6396;58.490;15.528;2022-10-26T03:42:39;100289.88;;;11.96;100.00
12664;BME280;6396;58.490;15.528;2022-10-26T03:45:07;100302.25;;;11.71;100.00
12664;BME280;6396;58.490;15.528;2022-10-26T03:47:41;100287.00;;;11.53;100.00
12664;BME280;6396;58.490;15.528;2022-10-26T03:50:08;100284.44;;;11.99;100.00
12664;BME280;6396;58.490;15.528;2022-10-26T03:52:35;100283.59;;;11.99;100.00
12664;BME280;6396;58.490;15.528;2022-10-26T03:55:04;99837.31;;;9.30;100.00
12664;BME280;6396;58.490;15.528;2022-10-26T03:57:31;100210.94;;;11.37;100.00
12664;BME280;6396;58.490;15.528;2022-10-26T03:59:58;100312.63;;;12.00;100.00
12664;BME280;6396;58.490;15.528;2022-10-26T04:02:25;100250.38;;;11.67;100.00
12664;BME280;6396;58.490;15.528;2022-10-26T04:04:52;100312.69;;;11.99;100.00
12664;BME280;6396;58.490;15.528;2022-10-26T04:07:19;99812.16;;;9.21;100.00
12664;BME280;6396;58.490;15.528;2022-10-26T04:09:45;100267.63;;;11.53;100.00
12664;BME280;6396;58.490;15.528;2022-10-26T04:12:14;99941.75;;;9.84;100.00
12664;BME280;6396;58.490;15.528;2022-10-26T04:14:40;100301.97;;;12.02;100.00
12664;BME280;6396;58.490;15.528;2022-10-26T04:17:07;100088.53;;;10.62;100.00
12664;BME280;6396;58.490;15.528;2022-10-26T04:19:34;99884.47;;;9.63;100.00
12664;BME280;6396;58.490;15.528;2022-10-26T04:22:01;100297.44;;;12.05;100.00
12664;BME280;6396;58.490;15.528;2022-10-26T04:24:30;100058.13;;;10.52;100.00
12664;BME280;6396;58.490;15.528;2022-10-26T04:26:57;100063.72;;;10.17;100.00
12664;BME280;6396;58.490;15.528;2022-10-26T04:29:25;100316.09;;;12.02;100.00
12664;BME280;6396;58.490;15.528;2022-10-26T04:31:52;100317.81;;;12.03;100.00
12664;BME280;6396;58.490;15.528;2022-10-26T04:34:19;100321.38;;;12.02;100.00
12664;BME280;6396;58.490;15.528;2022-10-26T04:36:46;99931.50;;;9.75;100.00
12664;BME280;6396;58.490;15.528;2022-10-26T04:39:12;100015.88;;;10.01;100.00
12664;BME280;6396;58.490;15.528;2022-10-26T04:41:39;100249.97;;;11.28;100.00
12664;BME280;6396;58.490;15.528;2022-10-26T04:44:06;100218.44;;;11.24;100.00
12664;BME280;6396;58.490;15.528;2022-10-26T04:46:34;100369.88;;;12.03;100.00
12664;BME280;6396;58.490;15.528;2022-10-26T04:49:01;100253.38;;;11.57;100.00
12664;BME280;6396;58.490;15.528;2022-10-26T04:51:27;100257.59;;;11.38;100.00
12664;BME280;6396;58.490;15.528;2022-10-26T04:53:55;100344.16;;;12.06;100.00
12664;BME280;6396;58.490;15.528;2022-10-26T04:56:22;100331.00;;;12.05;100.00
12664;BME280;6396;58.490;15.528;2022-10-26T04:58:52;100340.72;;;12.04;100.00
12664;BME280;6396;58.490;15.528;2022-10-26T05:01:19;100340.84;;;12.01;100.00
12664;BME280;6396;58.490;15.528;2022-10-26T05:03:49;100365.50;;;12.02;100.00
12664;BME280;6396;58.490;15.528;2022-10-26T05:06:16;100304.13;;;11.68;100.00
12664;BME280;6396;58.490;15.528;2022-10-26T05:08:43;100334.53;;;12.04;100.00
12664;BME280;6396;58.490;15.528;2022-10-26T05:11:10;100334.53;;;12.04;100.00
12664;BME280;6396;58.490;15.528;2022-10-26T05:13:37;100350.34;;;12.07;100.00
12664;BME280;6396;58.490;15.528;2022-10-26T05:16:04;100394.72;;;11.99;100.00
12664;BME280;6396;58.490;15.528;2022-10-26T05:18:31;100273.63;;;11.58;100.00
12664;BME280;6396;58.490;15.528;2022-10-26T05:20:59;100140.34;;;10.91;100.00
12664;BME280;6396;58.490;15.528;2022-10-26T05:23:26;100334.47;;;11.82;100.00
12664;BME280;6396;58.490;15.528;2022-10-26T05:25:54;100317.72;;;11.82;100.00
12664;BME280;6396;58.490;15.528;2022-10-26T05:28:21;100373.97;;;12.11;100.00
12664;BME280;6396;58.490;15.528;2022-10-26T05:30:48;100335.25;;;11.84;100.00
12664;BME280;6396;58.490;15.528;2022-10-26T05:33:15;99984.47;;;9.94;100.00
12664;BME280;6396;58.490;15.528;2022-10-26T05:35:41;100282.47;;;11.57;100.00
12664;BME280;6396;58.490;15.528;2022-10-26T05:38:11;100372.25;;;12.10;100.00
12664;BME280;6396;58.490;15.528;2022-10-26T05:40:45;100314.97;;;11.85;100.00
12664;BME280;6396;58.490;15.528;2022-10-26T05:43:12;100341.69;;;12.02;100.00
12664;BME280;6396;58.490;15.528;2022-10-26T05:45:39;100310.63;;;11.84;100.00
12664;BME280;6396;58.490;15.528;2022-10-26T05:48:06;100307.66;;;11.68;100.00
12664;BME280;6396;58.490;15.528;2022-10-26T05:50:33;100286.56;;;11.67;100.00
12664;BME280;6396;58.490;15.528;2022-10-26T05:53:00;100253.50;;;11.29;100.00
12664;BME280;6396;58.490;15.528;2022-10-26T05:55:29;100105.03;;;10.44;100.00
12664;BME280;6396;58.490;15.528;2022-10-26T05:57:56;100368.38;;;11.71;100.00
12664;BME280;6396;58.490;15.528;2022-10-26T06:00:25;100287.75;;;11.57;100.00
12664;BME280;6396;58.490;15.528;2022-10-26T06:03:06;100337.97;;;11.83;100.00
12664;BME280;6396;58.490;15.528;2022-10-26T06:05:50;100302.63;;;11.35;100.00
12664;BME280;6396;58.490;15.528;2022-10-26T06:08:18;100183.19;;;10.74;100.00
12664;BME280;6396;58.490;15.528;2022-10-26T06:10:47;100182.81;;;10.85;100.00
12664;BME280;6396;58.490;15.528;2022-10-26T06:13:14;100389.75;;;12.14;100.00
12664;BME280;6396;58.490;15.528;2022-10-26T06:15:52;100247.31;;;11.04;100.00
12664;BME280;6396;58.490;15.528;2022-10-26T06:18:30;100202.41;;;10.79;100.00
12664;BME280;6396;58.490;15.528;2022-10-26T06:21:18;100347.75;;;11.81;100.00
12664;BME280;6396;58.490;15.528;2022-10-26T06:23:52;100185.63;;;10.80;100.00
12664;BME280;6396;58.490;15.528;2022-10-26T06:26:33;100309.84;;;11.56;100.00
12664;BME280;6396;58.490;15.528;2022-10-26T06:29:11;100419.72;;;12.15;100.00
12664;BME280;6396;58.490;15.528;2022-10-26T06:31:48;100421.44;;;12.16;100.00
12664;BME280;6396;58.490;15.528;2022-10-26T06:34:28;100315.13;;;11.56;100.00
12664;BME280;6396;58.490;15.528;2022-10-26T06:36:59;100040.78;;;9.93;100.00
12664;BME280;6396;58.490;15.528;2022-10-26T06:39:34;100505.00;;;12.23;100.00
12664;BME280;6396;58.490;15.528;2022-10-26T06:42:03;100279.63;;;10.86;100.00
12664;BME280;6396;58.490;15.528;2022-10-26T06:44:31;100490.88;;;12.24;100.00
12664;BME280;6396;58.490;15.528;2022-10-26T06:47:20;100224.88;;;10.65;100.00
12664;BME280;6396;58.490;15.528;2022-10-26T06:50:11;100308.31;;;10.70;100.00
12664;BME280;6396;58.490;15.528;2022-10-26T06:53:05;100545.53;;;12.25;100.00
12664;BME280;6396;58.490;15.528;2022-10-26T06:55:53;100205.03;;;10.79;100.00
12664;BME280;6396;58.490;15.528;2022-10-26T06:58:26;100483.84;;;12.23;100.00
12664;BME280;6396;58.490;15.528;2022-10-26T07:00:55;100217.38;;;10.79;100.00
12664;BME280;6396;58.490;15.528;2022-10-26T07:03:22;100568.59;;;12.21;100.00
12664;BME280;6396;58.490;15.528;2022-10-26T07:05:49;100255.28;;;10.76;100.00
12664;BME280;6396;58.490;15.528;2022-10-26T07:08:16;100567.59;;;12.25;100.00
12664;BME280;6396;58.490;15.528;2022-10-26T07:10:43;100500.44;;;12.28;100.00
12664;BME280;6396;58.490;15.528;2022-10-26T07:13:11;100481.91;;;12.28;100.00
12664;BME280;6396;58.490;15.528;2022-10-26T07:15:39;100407.84;;;11.50;100.00
12664;BME280;6396;58.490;15.528;2022-10-26T07:18:07;100246.00;;;10.91;100.00
12664;BME280;6396;58.490;15.528;2022-10-26T07:20:35;100252.66;;;10.76;100.00
12664;BME280;6396;58.490;15.528;2022-10-26T07:23:03;100556.84;;;12.30;100.00
12664;BME280;6396;58.490;15.528;2022-10-26T07:25:31;100322.31;;;11.26;100.00
12664;BME280;6396;58.490;15.528;2022-10-26T07:27:59;100388.28;;;11.55;100.00
12664;BME280;6396;58.490;15.528;2022-10-26T07:30:27;100462.88;;;12.17;100.00
12664;BME280;6396;58.490;15.528;2022-10-26T07:32:59;100524.28;;;12.28;100.00
12664;BME280;6396;58.490;15.528;2022-10-26T07:35:26;100504.81;;;12.29;100.00
12664;BME280;6396;58.490;15.528;2022-10-26T07:37:56;100511.28;;;12.20;100.00
12664;BME280;6396;58.490;15.528;2022-10-26T07:40:22;100420.09;;;11.80;100.00
12664;BME280;6396;58.490;15.528;2022-10-26T07:42:49;100522.41;;;12.30;100.00
12664;BME280;6396;58.490;15.528;2022-10-26T07:45:17;100495.84;;;12.33;100.00
12664;BME280;6396;58.490;15.528;2022-10-26T07:47:44;100450.16;;;12.03;100.00
12664;BME280;6396;58.490;15.528;2022-10-26T07:50:13;100476.59;;;12.03;100.00
12664;BME280;6396;58.490;15.528;2022-10-26T07:52:39;100474.41;;;11.90;100.00
12664;BME280;6396;58.490;15.528;2022-10-26T07:55:07;100509.78;;;12.38;100.00
12664;BME280;6396;58.490;15.528;2022-10-26T07:57:34;100517.81;;;12.35;100.00
12664;BME280;6396;58.490;15.528;2022-10-26T08:00:03;100447.44;;;12.05;100.00
12664;BME280;6396;58.490;15.528;2022-10-26T08:02:30;100349.84;;;10.93;100.00
12664;BME280;6396;58.490;15.528;2022-10-26T08:04:57;100203.81;;;10.63;100.00
12664;BME280;6396;58.490;15.528;2022-10-26T08:07:26;100594.25;;;12.46;100.00
12664;BME280;6396;58.490;15.528;2022-10-26T08:09:53;100586.28;;;12.47;100.00
12664;BME280;6396;58.490;15.528;2022-10-26T08:12:20;100570.44;;;12.19;100.00
12664;BME280;6396;58.490;15.528;2022-10-26T08:14:47;100019.13;;;9.56;100.00
12664;BME280;6396;58.490;15.528;2022-10-26T08:17:14;99867.44;;;8.67;100.00
12664;BME280;6396;58.490;15.528;2022-10-26T08:19:41;100560.81;;;12.43;100.00
12664;BME280;6396;58.490;15.528;2022-10-26T08:22:07;100533.19;;;12.50;100.00
12664;BME280;6396;58.490;15.528;2022-10-26T08:24:35;100509.28;;;12.27;100.00
12664;BME280;6396;58.490;15.528;2022-10-26T08:27:02;100415.03;;;11.74;100.00
12664;BME280;6396;58.490;15.528;2022-10-26T08:29:29;100598.28;;;12.57;100.00
12664;BME280;6396;58.490;15.528;2022-10-26T08:31:56;100554.13;;;12.58;100.00
12664;BME280;6396;58.490;15.528;2022-10-26T08:34:23;100577.09;;;12.57;100.00
12664;BME280;6396;58.490;15.528;2022-10-26T08:36:50;100524.16;;;12.31;100.00
12664;BME280;6396;58.490;15.528;2022-10-26T08:39:17;100489.81;;;12.29;100.00
12664;BME280;6396;58.490;15.528;2022-10-26T08:41:46;100553.06;;;12.62;100.00
12664;BME280;6396;58.490;15.528;2022-10-26T08:44:23;100242.91;;;10.78;100.00
12664;BME280;6396;58.490;15.528;2022-10-26T08:46:55;100584.47;;;12.48;100.00
12664;BME280;6396;58.490;15.528;2022-10-26T08:49:26;100561.00;;;12.62;100.00
12664;BME280;6396;58.490;15.528;2022-10-26T08:51:58;100565.09;;;12.47;100.00
12664;BME280;6396;58.490;15.528;2022-10-26T08:54:34;100452.22;;;11.94;100.00
12664;BME280;6396;58.490;15.528;2022-10-26T08:57:14;100454.94;;;11.92;100.00
12664;BME280;6396;58.490;15.528;2022-10-26T08:59:46;100417.69;;;11.72;100.00
12664;BME280;6396;58.490;15.528;2022-10-26T09:02:16;100499.94;;;12.17;100.00
12664;BME280;6396;58.490;15.528;2022-10-26T09:04:43;100554.44;;;12.49;100.00
12664;BME280;6396;58.490;15.528;2022-10-26T09:07:17;100501.66;;;12.18;100.00
12664;BME280;6396;58.490;15.528;2022-10-26T09:09:56;100582.97;;;12.65;100.00
12664;BME280;6396;58.490;15.528;2022-10-26T09:12:43;100571.16;;;12.49;100.00
12664;BME280;6396;58.490;15.528;2022-10-26T09:15:17;100528.13;;;12.18;100.00
12664;BME280;6396;58.490;15.528;2022-10-26T09:17:54;100522.75;;;11.95;100.00
12664;BME280;6396;58.490;15.528;2022-10-26T09:21:05;100602.25;;;12.44;100.00
12664;BME280;6396;58.490;15.528;2022-10-26T09:23:55;100600.81;;;12.60;100.00
12664;BME280;6396;58.490;15.528;2022-10-26T09:26:31;100603.34;;;12.63;100.00
12664;BME280;6396;58.490;15.528;2022-10-26T09:29:04;100585.28;;;12.50;100.00
12664;BME280;6396;58.490;15.528;2022-10-26T09:31:37;100608.69;;;12.62;100.00
12664;BME280;6396;58.490;15.528;2022-10-26T09:34:05;100648.06;;;12.72;100.00
12664;BME280;6396;58.490;15.528;2022-10-26T09:36:33;100536.59;;;12.29;100.00
12664;BME280;6396;58.490;15.528;2022-10-26T09:39:07;100124.38;;;9.89;100.00
12664;BME280;6396;58.490;15.528;2022-10-26T09:41:38;100638.53;;;12.67;100.00
12664;BME280;6396;58.490;15.528;2022-10-26T09:44:11;100381.22;;;11.30;100.00
12664;BME280;6396;58.490;15.528;2022-10-26T09:46:47;100449.19;;;11.26;100.00
12664;BME280;6396;58.490;15.528;2022-10-26T09:49:16;100531.53;;;12.21;100.00
12664;BME280;6396;58.490;15.528;2022-10-26T09:51:44;100395.69;;;11.44;100.00
12664;BME280;6396;58.490;15.528;2022-10-26T09:54:14;100379.41;;;11.32;100.00
12664;BME280;6396;58.490;15.528;2022-10-26T09:56:42;100580.06;;;12.48;100.00
12664;BME280;6396;58.490;15.528;2022-10-26T09:59:12;100629.25;;;12.55;100.00
12664;BME280;6396;58.490;15.528;2022-10-26T10:01:40;100654.13;;;12.76;100.00
12664;BME280;6396;58.490;15.528;2022-10-26T10:04:15;100640.03;;;12.75;100.00
12664;BME280;6396;58.490;15.528;2022-10-26T10:06:45;100646.13;;;12.77;100.00
12664;BME280;6396;58.490;15.528;2022-10-26T10:09:14;100637.22;;;12.80;100.00
12664;BME280;6396;58.490;15.528;2022-10-26T10:11:43;100676.97;;;12.80;100.00
12664;BME280;6396;58.490;15.528;2022-10-26T10:14:16;100638.03;;;12.82;100.00
12664;BME280;6396;58.490;15.528;2022-10-26T10:16:50;100549.78;;;12.04;100.00
12664;BME280;6396;58.490;15.528;2022-10-26T10:19:24;100324.47;;;10.87;100.00
12664;BME280;6396;58.490;15.528;2022-10-26T10:21:54;100174.38;;;9.92;100.00
12664;BME280;6396;58.490;15.528;2022-10-26T10:24:26;100616.41;;;12.43;100.00
12664;BME280;6396;58.490;15.528;2022-10-26T10:26:58;100610.34;;;12.66;100.00
12664;BME280;6396;58.490;15.528;2022-10-26T10:32:22;100659.72;;;12.93;100.00
12664;BME280;6396;58.490;15.528;2022-10-26T10:34:54;100399.09;;;11.49;100.00
12664;BME280;6396;58.490;15.528;2022-10-26T10:37:24;100367.72;;;11.39;100.00
12664;BME280;6396;58.490;15.528;2022-10-26T10:40:01;100656.63;;;13.06;100.00
12664;BME280;6396;58.490;15.528;2022-10-26T10:42:38;100721.16;;;13.05;100.00
12664;BME280;6396;58.490;15.528;2022-10-26T10:45:18;100489.34;;;11.92;100.00
12664;BME280;6396;58.490;15.528;2022-10-26T10:48:04;100214.31;;;10.39;100.00
12664;BME280;6396;58.490;15.528;2022-10-26T10:50:47;100215.13;;;10.39;100.00
12664;BME280;6396;58.490;15.528;2022-10-26T10:53:21;100224.25;;;10.29;100.00
12664;BME280;6396;58.490;15.528;2022-10-26T10:56:05;100524.19;;;11.79;100.00
12664;BME280;6396;58.490;15.528;2022-10-26T10:58:45;100284.84;;;10.61;100.00
12664;BME280;6396;58.490;15.528;2022-10-26T11:01:20;100689.44;;;13.02;100.00
12664;BME280;6396;58.490;15.528;2022-10-26T11:04:11;100613.03;;;12.64;100.00
12664;BME280;6396;58.490;15.528;2022-10-26T11:06:47;100618.97;;;12.71;100.00
12664;BME280;6396;58.490;15.528;2022-10-26T11:09:17;100642.00;;;12.69;100.00
12664;BME280;6396;58.490;15.528;2022-10-26T11:11:52;100066.84;;;8.88;100.00
12664;BME280;6396;58.490;15.528;2022-10-26T11:14:28;100688.78;;;12.96;100.00
12664;BME280;6396;58.490;15.528;2022-10-26T11:17:04;100640.28;;;12.68;100.00
12664;BME280;6396;58.490;15.528;2022-10-26T11:19:35;100708.00;;;13.02;100.00
12664;BME280;6396;58.490;15.528;2022-10-26T11:22:10;100647.00;;;12.78;100.00
12664;BME280;6396;58.490;15.528;2022-10-26T11:24:43;100699.03;;;13.06;100.00
12664;BME280;6396;58.490;15.528;2022-10-26T11:27:14;100693.75;;;13.06;100.00
12664;BME280;6396;58.490;15.528;2022-10-26T11:29:46;100707.56;;;13.14;100.00
12664;BME280;6396;58.490;15.528;2022-10-26T11:32:20;100696.16;;;13.12;100.00
12664;BME280;6396;58.490;15.528;2022-10-26T11:34:52;100651.00;;;12.89;100.00
12664;BME280;6396;58.490;15.528;2022-10-26T11:37:26;100730.53;;;13.15;100.00
12664;BME280;6396;58.490;15.528;2022-10-26T11:40:17;100668.97;;;12.81;100.00
12664;BME280;6396;58.490;15.528;2022-10-26T11:42:50;100702.22;;;13.16;100.00
12664;BME280;6396;58.490;15.528;2022-10-26T11:45:22;100707.63;;;13.13;100.00
12664;BME280;6396;58.490;15.528;2022-10-26T11:47:56;100361.19;;;10.96;100.00
12664;BME280;6396;58.490;15.528;2022-10-26T11:50:29;100657.47;;;12.81;100.00
12664;BME280;6396;58.490;15.528;2022-10-26T11:53:00;100494.91;;;11.83;100.00
12664;BME280;6396;58.490;15.528;2022-10-26T11:55:28;100713.81;;;13.13;100.00
12664;BME280;6396;58.490;15.528;2022-10-26T11:57:56;100492.56;;;11.74;100.00
12664;BME280;6396;58.490;15.528;2022-10-26T12:00:25;100762.50;;;13.11;100.00
12664;BME280;6396;58.490;15.528;2022-10-26T12:02:57;100548.59;;;12.13;100.00
12664;BME280;6396;58.490;15.528;2022-10-26T12:05:32;100659.72;;;12.68;100.00
12664;BME280;6396;58.490;15.528;2022-10-26T12:08:04;100558.13;;;11.92;100.00
12664;BME280;6396;58.490;15.528;2022-10-26T12:10:32;100736.75;;;13.14;100.00
12664;BME280;6396;58.490;15.528;2022-10-26T12:13:08;100617.13;;;12.48;100.00
12664;BME280;6396;58.490;15.528;2022-10-26T12:15:42;100779.06;;;13.17;100.00
12664;BME280;6396;58.490;15.528;2022-10-26T12:18:16;100752.53;;;13.17;100.00
12664;BME280;6396;58.490;15.528;2022-10-26T12:20:53;100733.66;;;13.00;100.00
12664;BME280;6396;58.490;15.528;2022-10-26T12:23:22;100485.81;;;11.66;100.00
12664;BME280;6396;58.490;15.528;2022-10-26T12:25:50;100708.41;;;12.90;100.00
12664;BME280;6396;58.490;15.528;2022-10-26T12:28:38;100738.69;;;13.09;100.00
12664;BME280;6396;58.490;15.528;2022-10-26T12:31:40;100740.53;;;13.07;100.00
12664;BME280;6396;58.490;15.528;2022-10-26T12:34:12;100514.94;;;11.64;100.00
12664;BME280;6396;58.490;15.528;2022-10-26T12:37:18;100742.28;;;13.08;100.00
12664;BME280;6396;58.490;15.528;2022-10-26T12:39:47;100671.03;;;12.47;100.00
12664;BME280;6396;58.490;15.528;2022-10-26T12:42:36;100238.13;;;10.06;100.00
12664;BME280;6396;58.490;15.528;2022-10-26T12:45:18;100325.81;;;10.45;100.00
12664;BME280;6396;58.490;15.528;2022-10-26T12:48:02;100717.16;;;12.92;100.00
12664;BME280;6396;58.490;15.528;2022-10-26T12:50:31;100532.84;;;11.84;100.00
12664;BME280;6396;58.490;15.528;2022-10-26T12:53:04;100709.69;;;12.79;100.00
12664;BME280;6396;58.490;15.528;2022-10-26T12:55:53;100746.75;;;13.06;100.00
12664;BME280;6396;58.490;15.528;2022-10-26T12:59:02;100666.50;;;12.49;100.00
12664;BME280;6396;58.490;15.528;2022-10-26T13:01:58;100739.63;;;13.08;100.00
12664;BME280;6396;58.490;15.528;2022-10-26T13:05:06;100753.66;;;13.10;100.00
12664;BME280;6396;58.490;15.528;2022-10-26T13:07:40;100418.41;;;11.23;100.00
12664;BME280;6396;58.490;15.528;2022-10-26T13:10:18;100746.59;;;13.11;100.00
12664;BME280;6396;58.490;15.528;2022-10-26T13:12:49;100513.78;;;11.73;100.00
12664;BME280;6396;58.490;15.528;2022-10-26T13:15:25;100559.91;;;11.64;100.00